KSAV/SAV METAR and TAF weather

Enter ICAO airport designator
Station Type Date Time Source
KSAV METAR 2024/02/26 17:53 UTC NOAA

KSAV 261753Z 16008KT 10SM FEW005 FEW010 FEW250 21/03 A3021 RMK AO2 SLP229 FU FEW005 FU FEW010 T02110028 10211 20044 58015


Station Type Date Time Source
KSAV Decoded METAR 2024/02/26 17:53 UTC NOAA

SAVANNAH INTERNATIONAL AIRPORT , GA, United States (KSAV) 32-07N 81-12W 14M
Feb 26, 2024 - 12:53 PM EST / 2024.02.26 1753 UTC
Wind: from the SSE (160 degrees) at 9 MPH (8 KT):0
Visibility: 10 mile(s):0
Sky conditions: mostly clear
Temperature: 70.0 F (21.1 C)
Dew Point: 37.0 F (2.8 C)
Relative Humidity: 29%
Pressure (altimeter): 30.21 in. Hg (1023 hPa)
Pressure tendency: 0.04 inches (1.5 hPa) lower than three hours ago
ob: KSAV 261753Z 16008KT 10SM FEW005 FEW010 FEW250 21/03 A3021 RMK AO2 SLP229 FU FEW005 FU FEW010 T02110028 10211 20044 58015
cycle: 18

Station Type Date Time Source
KSAV TAF 2024/02/26 18:27 UTC NOAA